Time;durP1;ratioP1;P1;durP2;ratioP2;P2;SDS_P1;SDS_P2;PMS_P1;PMS_P2;Temp;Humidity;BMP_temperature;BMP_pressure;BME280_temperature;BME280_humidity;BME280_pressure;Samples;Min_cycle;Max_cycle;Signal;HPM_P1;HPM_P2
2022/12/06 00:01:43;;;;;;;16.43;12.80;;;4.20;99.90;;;;;;5016267;28;20216;-61
2022/12/06 00:04:12;;;;;;;16.33;12.37;;;4.10;99.90;;;;;;5008943;28;20313;-63
2022/12/06 00:06:41;;;;;;;14.60;11.63;;;4.10;99.90;;;;;;5006160;28;20220;-60
2022/12/06 00:09:06;;;;;;;16.80;11.73;;;4.10;99.90;;;;;;5005486;28;20203;-63
2022/12/06 00:11:34;;;;;;;19.13;12.07;;;4.00;99.90;;;;;;4967655;28;20339;-65
2022/12/06 00:14:02;;;;;;;15.57;12.63;;;4.00;99.90;;;;;;5006565;28;20203;-63
2022/12/06 00:16:29;;;;;;;18.20;13.03;;;4.00;99.90;;;;;;5006723;28;20217;-64
2022/12/06 00:18:55;;;;;;;14.33;10.70;;;4.00;99.90;;;;;;5006788;28;20215;-64
2022/12/06 00:21:23;;;;;;;17.43;12.27;;;4.00;99.90;;;;;;5005903;28;20230;-63
2022/12/06 00:23:55;;;;;;;15.53;11.10;;;4.00;99.90;;;;;;5005786;28;20198;-62
2022/12/06 00:26:22;;;;;;;14.23;11.03;;;4.00;99.90;;;;;;5006103;28;20566;-63
2022/12/06 00:28:51;;;;;;;14.73;11.03;;;4.00;99.90;;;;;;5005911;28;20208;-62
2022/12/06 00:31:18;;;;;;;14.40;11.93;;;4.00;99.90;;;;;;5005853;28;20657;-63
2022/12/06 00:33:44;;;;;;;15.83;11.87;;;4.00;99.90;;;;;;5005061;28;20683;-60
2022/12/06 00:36:13;;;;;;;14.50;11.53;;;4.00;99.90;;;;;;5003256;28;20223;-62
2022/12/06 00:38:38;;;;;;;16.90;11.43;;;4.00;99.90;;;;;;5006477;28;20211;-61
2022/12/06 00:41:09;;;;;;;15.97;11.70;;;4.00;99.90;;;;;;5008106;28;20213;-62
2022/12/06 00:43:36;;;;;;;13.97;11.30;;;4.00;99.90;;;;;;5004770;28;20244;-61
2022/12/06 00:46:02;;;;;;;15.80;12.10;;;4.00;99.90;;;;;;5006417;28;20199;-62
2022/12/06 00:48:28;;;;;;;14.53;11.33;;;3.90;99.90;;;;;;5004314;28;20309;-61
2022/12/06 00:50:54;;;;;;;18.07;12.80;;;3.90;99.90;;;;;;5006647;28;21058;-62
2022/12/06 00:53:19;;;;;;;16.70;12.67;;;3.90;99.90;;;;;;5006761;28;20603;-60
2022/12/06 00:55:45;;;;;;;17.53;13.10;;;3.80;99.90;;;;;;5006114;28;21027;-60
2022/12/06 00:58:12;;;;;;;14.40;12.00;;;3.80;99.90;;;;;;5004719;28;20772;-60
2022/12/06 01:00:37;;;;;;;17.37;12.97;;;3.70;99.90;;;;;;5005523;28;20693;-58
2022/12/06 01:03:03;;;;;;;17.40;12.73;;;3.70;99.90;;;;;;5006167;28;20203;-59
2022/12/06 01:05:29;;;;;;;16.43;12.87;;;3.70;99.90;;;;;;5005609;28;20227;-61
2022/12/06 01:07:55;;;;;;;17.30;12.87;;;3.70;99.90;;;;;;5016239;28;20395;-62
2022/12/06 01:10:20;;;;;;;15.60;12.23;;;3.70;99.90;;;;;;5014836;28;20199;-61
2022/12/06 01:12:46;;;;;;;15.80;12.13;;;3.60;99.90;;;;;;5018574;28;20202;-63
2022/12/06 01:15:12;;;;;;;17.17;13.60;;;3.60;99.90;;;;;;5015364;28;20314;-63
2022/12/06 01:17:37;;;;;;;17.03;13.20;;;3.60;99.90;;;;;;5019229;28;20654;-63
2022/12/06 01:20:04;;;;;;;13.90;11.27;;;3.60;99.90;;;;;;5020344;28;20545;-59
2022/12/06 01:22:30;;;;;;;14.63;11.13;;;3.60;99.90;;;;;;5020006;28;20195;-60
2022/12/06 01:24:55;;;;;;;17.23;12.90;;;3.50;99.90;;;;;;5021412;28;20196;-60
2022/12/06 01:27:21;;;;;;;14.73;11.53;;;3.60;99.90;;;;;;5019751;28;20974;-60
2022/12/06 01:29:46;;;;;;;17.33;11.90;;;3.60;99.90;;;;;;5020345;28;20962;-59
2022/12/06 01:32:11;;;;;;;17.50;11.83;;;3.60;99.90;;;;;;5019855;28;20248;-59
2022/12/06 01:34:37;;;;;;;13.90;11.60;;;3.50;99.90;;;;;;5019002;28;20194;-59
2022/12/06 01:37:03;;;;;;;13.77;11.87;;;3.60;99.90;;;;;;5016906;28;20272;-59
2022/12/06 01:39:29;;;;;;;16.03;11.60;;;3.60;99.90;;;;;;5020236;28;20241;-58
2022/12/06 01:41:54;;;;;;;20.67;12.53;;;3.60;99.90;;;;;;5009887;28;20220;-59
2022/12/06 01:44:47;;;;;;;17.17;11.47;;;3.60;99.90;;;;;;5010194;28;20291;-59
2022/12/06 01:47:23;;;;;;;17.03;11.60;;;3.50;99.90;;;;;;5021920;28;20278;-62
2022/12/06 01:49:57;;;;;;;14.53;10.63;;;3.50;99.90;;;;;;5007713;28;20216;-61
2022/12/06 01:52:34;;;;;;;17.53;11.90;;;3.50;99.90;;;;;;5009697;28;20211;-62
2022/12/06 01:55:01;;;;;;;13.60;10.07;;;3.50;99.90;;;;;;5010023;28;20209;-62
2022/12/06 01:57:27;;;;;;;10.57;9.20;;;3.50;99.90;;;;;;5008967;28;21031;-59
2022/12/06 01:59:52;;;;;;;12.67;10.47;;;3.60;99.90;;;;;;5008264;28;20243;-59
2022/12/06 02:05:40;;;;;;;12.03;9.87;;;3.60;99.90;;;;;;5011534;28;20201;-59
2022/12/06 02:08:08;;;;;;;13.33;10.20;;;3.60;99.90;;;;;;5013771;28;20204;-58
2022/12/06 02:10:35;;;;;;;14.67;10.70;;;3.60;99.90;;;;;;5019492;28;20223;-58
2022/12/06 02:13:01;;;;;;;12.67;10.27;;;3.60;99.90;;;;;;5017683;28;20217;-59
2022/12/06 02:15:50;;;;;;;16.70;10.60;;;3.70;99.90;;;;;;5018456;28;20209;-58
2022/12/06 02:18:33;;;;;;;15.67;10.53;;;3.70;99.90;;;;;;5019059;28;20199;-60
2022/12/06 02:21:17;;;;;;;14.97;10.70;;;3.70;99.90;;;;;;5018658;28;20207;-58
2022/12/06 02:24:29;;;;;;;13.83;10.87;;;3.80;99.90;;;;;;5008753;28;20297;-59
2022/12/06 02:27:36;;;;;;;16.57;11.97;;;3.70;99.90;;;;;;5007098;28;20614;-60
2022/12/06 02:30:33;;;;;;;17.90;12.63;;;3.70;99.90;;;;;;5007482;28;20223;-59
2022/12/06 02:33:05;;;;;;;17.63;13.23;;;3.70;99.90;;;;;;5008157;28;20208;-58
2022/12/06 02:35:44;;;;;;;19.63;13.87;;;3.70;99.90;;;;;;5008599;28;20198;-59
2022/12/06 02:38:22;;;;;;;16.60;13.60;;;3.60;99.90;;;;;;5007123;28;20202;-60
2022/12/06 02:40:57;;;;;;;20.30;13.77;;;3.60;99.90;;;;;;5011906;28;20592;-59
2022/12/06 02:43:32;;;;;;;18.60;14.87;;;3.60;99.90;;;;;;5007482;28;20191;-59
2022/12/06 02:46:01;;;;;;;19.40;14.77;;;3.60;99.90;;;;;;5008027;28;20233;-59
2022/12/06 02:48:27;;;;;;;19.73;14.67;;;3.60;99.90;;;;;;5005515;28;20242;-58
2022/12/06 02:51:00;;;;;;;20.43;14.47;;;3.60;99.90;;;;;;5008423;28;20227;-58
2022/12/06 02:53:28;;;;;;;20.40;14.27;;;3.60;99.90;;;;;;5005358;28;20246;-59
2022/12/06 02:55:54;;;;;;;20.47;14.93;;;3.60;99.90;;;;;;5006548;28;20722;-60
2022/12/06 02:58:19;;;;;;;21.57;14.93;;;3.60;99.90;;;;;;5006146;28;20214;-59
2022/12/06 03:00:51;;;;;;;20.30;15.13;;;3.50;99.90;;;;;;5007594;28;20222;-58
2022/12/06 03:03:48;;;;;;;22.57;17.00;;;3.50;99.90;;;;;;5008674;28;20210;-59
2022/12/06 03:06:23;;;;;;;23.33;15.17;;;3.50;99.90;;;;;;5010271;28;20223;-59
2022/12/06 03:09:07;;;;;;;24.60;17.57;;;3.50;99.90;;;;;;5004160;28;20199;-59
2022/12/06 03:11:46;;;;;;;23.33;17.40;;;3.50;99.90;;;;;;5009050;28;20623;-59
2022/12/06 03:14:24;;;;;;;23.47;16.97;;;3.40;99.90;;;;;;5007363;28;20195;-59
2022/12/06 03:17:15;;;;;;;18.53;13.40;;;3.50;99.90;;;;;;5006212;28;20210;-59
2022/12/06 03:19:41;;;;;;;15.30;12.90;;;3.50;99.90;;;;;;5005976;28;20222;-60
2022/12/06 03:22:10;;;;;;;13.70;11.20;;;3.50;99.90;;;;;;5007300;28;20693;-59
2022/12/06 03:24:39;;;;;;;13.50;10.43;;;3.40;99.90;;;;;;5007089;28;20805;-59
2022/12/06 03:27:10;;;;;;;11.27;9.63;;;3.40;99.90;;;;;;5007190;28;20195;-59
2022/12/06 03:29:40;;;;;;;13.73;9.50;;;3.40;99.90;;;;;;5011503;28;20203;-60
2022/12/06 03:32:08;;;;;;;9.27;8.30;;;3.40;99.90;;;;;;5008462;28;20214;-58
2022/12/06 03:34:43;;;;;;;9.73;7.93;;;3.40;99.90;;;;;;5017188;28;20278;-58
2022/12/06 03:37:12;;;;;;;10.80;8.43;;;3.30;99.90;;;;;;5015768;28;20562;-58
2022/12/06 03:39:50;;;;;;;9.80;8.53;;;3.30;99.90;;;;;;5015824;28;20205;-58
2022/12/06 03:42:17;;;;;;;11.10;8.37;;;3.30;99.90;;;;;;5015194;28;20231;-58
2022/12/06 03:44:42;;;;;;;11.27;8.70;;;3.40;99.90;;;;;;5015191;28;20202;-58
2022/12/06 03:47:14;;;;;;;13.63;9.50;;;3.40;99.90;;;;;;5016771;28;20199;-57
2022/12/06 03:49:48;;;;;;;10.77;9.43;;;3.30;99.90;;;;;;5016686;28;20229;-57
2022/12/06 03:52:13;;;;;;;11.67;8.93;;;3.30;99.90;;;;;;5014704;28;20209;-58
2022/12/06 03:54:40;;;;;;;12.03;8.60;;;3.30;99.90;;;;;;5016401;28;20622;-57
2022/12/06 03:57:06;;;;;;;13.47;9.07;;;3.30;99.90;;;;;;5016483;28;20234;-57
2022/12/06 03:59:31;;;;;;;8.47;7.53;;;3.20;99.90;;;;;;5016446;28;20210;-57
2022/12/06 04:01:57;;;;;;;11.60;8.80;;;3.20;99.90;;;;;;5016288;28;20224;-59
2022/12/06 04:04:23;;;;;;;10.50;8.07;;;3.20;99.90;;;;;;5014779;28;20665;-59
2022/12/06 04:06:49;;;;;;;10.80;9.30;;;3.20;99.90;;;;;;5016024;28;20241;-59
2022/12/06 04:11:59;;;;;;;10.47;8.33;;;3.20;99.90;;;;;;5014933;28;20224;-59
2022/12/06 04:14:31;;;;;;;9.97;8.93;;;3.20;99.90;;;;;;5016534;28;20298;-58
2022/12/06 04:19:41;;;;;;;10.57;8.83;;;3.20;99.90;;;;;;5016294;28;20235;-59
2022/12/06 04:24:51;;;;;;;10.80;8.60;;;3.20;99.90;;;;;;5016381;28;20211;-59
2022/12/06 04:40:57;;;;;;;9.80;8.67;;;3.20;99.90;;;;;;5014821;28;20324;-58
2022/12/06 04:43:40;;;;;;;10.87;8.30;;;3.30;99.90;;;;;;5013793;28;20701;-59
2022/12/06 04:46:06;;;;;;;9.47;7.83;;;3.30;99.90;;;;;;5019156;28;20239;-58
2022/12/06 04:48:32;;;;;;;7.70;6.87;;;3.30;99.90;;;;;;5011113;28;20571;-58
2022/12/06 04:50:57;;;;;;;9.17;7.37;;;3.40;99.90;;;;;;5016065;28;20680;-58
2022/12/06 04:53:23;;;;;;;7.40;6.30;;;3.40;99.90;;;;;;5020338;28;20203;-59
2022/12/06 04:55:49;;;;;;;9.03;7.97;;;3.40;99.90;;;;;;5019995;28;20221;-59
2022/12/06 04:58:15;;;;;;;8.67;7.77;;;3.30;99.90;;;;;;5020384;28;20693;-59
2022/12/06 05:00:42;;;;;;;8.70;7.73;;;3.30;99.90;;;;;;5019928;28;20216;-59
2022/12/06 05:03:11;;;;;;;8.23;6.20;;;3.30;99.90;;;;;;5018239;28;20211;-59
2022/12/06 05:05:37;;;;;;;7.33;6.60;;;3.30;99.90;;;;;;5019700;28;20210;-59
2022/12/06 05:08:03;;;;;;;9.03;7.53;;;3.30;99.90;;;;;;5019570;28;20665;-59
2022/12/06 05:10:29;;;;;;;8.03;7.10;;;3.30;99.90;;;;;;5019889;28;20211;-59
2022/12/06 05:12:54;;;;;;;8.10;6.50;;;3.20;99.90;;;;;;5019506;28;20206;-58
2022/12/06 05:15:20;;;;;;;7.10;5.87;;;3.20;99.90;;;;;;5017534;28;20211;-59
2022/12/06 05:17:45;;;;;;;8.23;6.80;;;3.20;99.90;;;;;;5019260;28;20207;-59
2022/12/06 05:20:13;;;;;;;9.93;7.07;;;3.20;99.90;;;;;;5019217;28;20286;-58
2022/12/06 05:22:38;;;;;;;9.23;7.37;;;3.10;99.90;;;;;;5019427;28;20933;-58
2022/12/06 05:25:04;;;;;;;7.37;6.57;;;3.10;99.90;;;;;;5019519;28;20286;-59
2022/12/06 05:27:30;;;;;;;7.37;6.67;;;3.00;99.90;;;;;;5018698;28;20211;-60
2022/12/06 05:29:55;;;;;;;8.40;6.37;;;3.00;99.90;;;;;;5009505;28;20209;-59
2022/12/06 05:32:21;;;;;;;10.37;7.33;;;3.00;99.90;;;;;;5019094;28;20620;-59
2022/12/06 05:34:46;;;;;;;9.57;7.30;;;3.10;99.90;;;;;;5018941;28;20215;-59
2022/12/06 05:37:12;;;;;;;9.60;7.70;;;3.00;99.90;;;;;;5019246;28;20198;-60
2022/12/06 05:39:37;;;;;;;8.40;6.20;;;3.00;99.90;;;;;;5017977;28;20267;-59
2022/12/06 05:42:03;;;;;;;9.73;6.50;;;2.90;99.90;;;;;;5016693;28;20223;-59
2022/12/06 05:44:28;;;;;;;11.33;7.70;;;3.00;99.90;;;;;;5018720;28;20660;-59
2022/12/06 05:46:54;;;;;;;11.90;8.67;;;3.10;99.90;;;;;;5019009;28;20199;-59
2022/12/06 05:49:19;;;;;;;11.83;8.27;;;3.10;99.90;;;;;;5018862;28;20828;-59
2022/12/06 05:51:45;;;;;;;10.73;7.87;;;3.10;99.90;;;;;;5018591;28;20206;-59
2022/12/06 05:54:10;;;;;;;9.03;7.30;;;3.20;99.90;;;;;;5019098;28;20207;-59
2022/12/06 05:56:36;;;;;;;9.30;7.67;;;3.30;99.90;;;;;;5017303;28;20231;-59
2022/12/06 05:59:02;;;;;;;8.73;7.53;;;3.20;99.90;;;;;;5018961;28;20229;-59
2022/12/06 06:01:27;;;;;;;10.70;7.13;;;3.30;99.90;;;;;;5018779;28;20755;-62
2022/12/06 06:03:53;;;;;;;8.27;7.30;;;3.20;99.90;;;;;;5018159;28;20281;-64
2022/12/06 06:06:19;;;;;;;9.53;7.57;;;3.20;99.90;;;;;;5019059;28;20199;-59
2022/12/06 06:08:44;;;;;;;11.20;7.73;;;3.20;99.90;;;;;;5018563;28;20294;-60
2022/12/06 06:11:09;;;;;;;10.33;7.87;;;3.20;99.90;;;;;;5016725;28;20273;-60
2022/12/06 06:13:35;;;;;;;10.63;8.30;;;3.20;99.90;;;;;;5018341;28;20227;-59
2022/12/06 06:16:00;;;;;;;8.60;7.43;;;3.20;99.90;;;;;;5018261;28;20192;-59
2022/12/06 06:18:26;;;;;;;8.43;6.73;;;3.20;99.90;;;;;;5020462;28;20196;-59
2022/12/06 06:20:56;;;;;;;7.90;7.03;;;3.30;99.90;;;;;;5016780;28;20977;-59
2022/12/06 06:23:23;;;;;;;12.00;8.80;;;3.30;99.90;;;;;;5017841;28;20202;-59
2022/12/06 06:25:49;;;;;;;10.53;7.97;;;3.30;99.90;;;;;;5017271;28;20187;-59
2022/12/06 06:28:15;;;;;;;8.10;7.30;;;3.30;99.90;;;;;;5018278;28;20202;-58
2022/12/06 06:30:40;;;;;;;7.93;6.83;;;3.30;99.90;;;;;;5014050;28;20741;-58
2022/12/06 06:33:06;;;;;;;8.77;7.17;;;3.20;99.90;;;;;;5004475;28;20207;-59
2022/12/06 06:35:31;;;;;;;7.43;6.73;;;3.20;99.90;;;;;;5006384;28;20204;-59
2022/12/06 06:37:57;;;;;;;9.70;7.53;;;3.20;99.90;;;;;;5008388;28;20217;-58
2022/12/06 06:40:22;;;;;;;9.93;7.10;;;3.30;99.90;;;;;;5008712;28;20223;-58
2022/12/06 06:42:48;;;;;;;10.77;8.13;;;3.30;99.90;;;;;;5014241;28;20374;-58
2022/12/06 06:45:13;;;;;;;7.63;6.87;;;3.30;99.90;;;;;;5011592;28;20207;-58
2022/12/06 06:47:39;;;;;;;10.00;7.20;;;3.40;99.90;;;;;;5008714;28;20660;-58
2022/12/06 06:50:05;;;;;;;10.20;7.60;;;3.40;99.90;;;;;;5005915;28;20192;-59
2022/12/06 06:52:31;;;;;;;9.53;7.60;;;3.40;99.90;;;;;;5010478;28;20246;-59
2022/12/06 06:54:57;;;;;;;8.43;7.50;;;3.30;99.90;;;;;;5006096;28;20211;-59
2022/12/06 06:57:23;;;;;;;8.50;7.30;;;3.30;99.90;;;;;;5007309;28;20337;-58
2022/12/06 06:59:49;;;;;;;8.17;7.03;;;3.40;99.90;;;;;;5007669;28;20666;-58
2022/12/06 07:02:16;;;;;;;9.97;7.43;;;3.40;99.90;;;;;;5006991;28;20226;-58
2022/12/06 07:04:43;;;;;;;9.97;7.53;;;3.40;99.90;;;;;;5007349;28;20590;-58
2022/12/06 07:07:09;;;;;;;8.10;6.83;;;3.40;99.90;;;;;;5007879;28;20597;-59
2022/12/06 07:09:35;;;;;;;7.00;6.33;;;3.40;99.90;;;;;;5007592;28;20200;-58
2022/12/06 07:12:01;;;;;;;7.67;6.80;;;3.30;99.90;;;;;;5008076;28;20268;-59
2022/12/06 07:14:26;;;;;;;7.50;6.67;;;3.30;99.90;;;;;;5005178;28;20199;-59
2022/12/06 07:16:52;;;;;;;8.43;7.10;;;3.30;99.90;;;;;;5007091;28;20202;-59
2022/12/06 07:19:17;;;;;;;6.80;6.10;;;3.30;99.90;;;;;;5007133;28;20720;-60
2022/12/06 07:21:43;;;;;;;8.20;6.70;;;3.40;99.90;;;;;;5006781;28;20215;-59
2022/12/06 07:24:08;;;;;;;9.53;6.60;;;3.40;99.90;;;;;;5010090;28;20561;-60
2022/12/06 07:26:34;;;;;;;7.83;7.03;;;3.40;99.90;;;;;;5003518;28;20758;-60
2022/12/06 07:29:00;;;;;;;7.53;6.50;;;3.40;99.90;;;;;;5004868;28;20204;-60
2022/12/06 07:31:28;;;;;;;6.17;5.57;;;3.40;99.90;;;;;;5007413;28;20265;-60
2022/12/06 07:33:56;;;;;;;8.43;6.87;;;3.30;99.90;;;;;;5007154;28;20246;-60
2022/12/06 07:36:22;;;;;;;10.10;6.63;;;3.40;99.90;;;;;;5007046;28;20203;-58
2022/12/06 07:38:50;;;;;;;7.70;6.10;;;3.40;99.90;;;;;;5005083;28;20210;-58
2022/12/06 07:46:46;;;;;;;7.37;5.93;;;3.30;99.90;;;;;;5006972;28;20593;-58
2022/12/06 07:49:12;;;;;;;8.77;6.23;;;3.20;99.90;;;;;;5007722;28;20195;-57
2022/12/06 07:51:38;;;;;;;10.00;6.93;;;3.20;99.90;;;;;;5014181;28;20283;-58
2022/12/06 07:54:04;;;;;;;8.60;6.60;;;3.30;99.90;;;;;;5006442;28;20214;-58
2022/12/06 07:56:29;;;;;;;7.80;6.20;;;3.30;99.90;;;;;;5005872;28;20234;-58
2022/12/06 07:58:55;;;;;;;6.60;5.90;;;3.20;99.90;;;;;;5005995;28;20210;-58
2022/12/06 08:01:22;;;;;;;8.57;5.97;;;3.20;99.90;;;;;;5009719;28;20509;-58
2022/12/06 08:03:49;;;;;;;8.33;6.87;;;3.20;99.90;;;;;;5003006;28;20216;-58
2022/12/06 08:06:15;;;;;;;7.83;6.50;;;3.30;99.90;;;;;;5007017;28;20200;-59
2022/12/06 08:08:40;;;;;;;7.10;6.07;;;3.30;99.90;;;;;;5017732;28;20209;-58
2022/12/06 08:11:07;;;;;;;8.33;5.73;;;3.30;99.90;;;;;;5004927;28;20397;-58
2022/12/06 08:13:34;;;;;;;8.07;6.37;;;3.30;99.90;;;;;;5007353;28;20840;-58
2022/12/06 08:16:07;;;;;;;8.10;6.07;;;3.40;99.90;;;;;;5005895;28;20206;-58
2022/12/06 08:18:33;;;;;;;7.80;6.47;;;3.40;99.90;;;;;;5006454;28;20223;-58
2022/12/06 08:20:58;;;;;;;6.90;6.27;;;3.40;99.90;;;;;;5006239;28;20293;-58
2022/12/06 08:23:24;;;;;;;6.23;5.63;;;3.40;99.90;;;;;;5006219;28;20524;-58
2022/12/06 08:26:01;;;;;;;8.83;6.17;;;3.40;99.90;;;;;;5004964;28;20198;-59
2022/12/06 08:28:28;;;;;;;7.27;5.37;;;3.40;99.90;;;;;;5014895;28;20207;-59
2022/12/06 08:30:53;;;;;;;6.67;5.97;;;3.40;99.90;;;;;;5016236;28;20198;-58
2022/12/06 08:33:20;;;;;;;6.13;4.90;;;3.40;99.90;;;;;;5015752;28;20564;-59
2022/12/06 08:35:46;;;;;;;7.33;5.43;;;3.30;99.90;;;;;;5015980;28;20250;-59
2022/12/06 08:38:12;;;;;;;6.30;5.70;;;3.30;99.90;;;;;;5016012;28;20682;-59
2022/12/06 08:40:37;;;;;;;5.73;5.23;;;3.30;99.90;;;;;;5015972;28;20619;-59
2022/12/06 08:43:02;;;;;;;6.27;5.57;;;3.30;99.90;;;;;;5015807;28;20205;-59
2022/12/06 08:45:28;;;;;;;5.27;4.77;;;3.40;99.90;;;;;;5013635;28;20290;-59
2022/12/06 08:47:53;;;;;;;6.37;5.40;;;3.50;99.90;;;;;;5015697;28;20681;-58
2022/12/06 08:50:19;;;;;;;7.23;5.77;;;3.50;99.90;;;;;;5017250;28;20233;-58
2022/12/06 08:52:44;;;;;;;5.80;5.20;;;3.40;99.90;;;;;;5012893;28;20199;-58
2022/12/06 08:55:10;;;;;;;6.07;5.03;;;3.40;99.90;;;;;;5015742;28;20206;-58
2022/12/06 08:57:35;;;;;;;4.67;4.27;;;3.40;99.90;;;;;;5015645;28;20276;-58
2022/12/06 09:00:01;;;;;;;6.03;5.43;;;3.40;99.90;;;;;;5013934;28;20203;-58
2022/12/06 09:02:27;;;;;;;5.43;4.90;;;3.30;99.90;;;;;;5018273;28;20218;-57
2022/12/06 09:04:52;;;;;;;7.23;5.13;;;3.30;99.90;;;;;;5025380;28;20200;-58
2022/12/06 09:07:18;;;;;;;6.93;5.53;;;3.40;99.90;;;;;;5023696;28;20804;-59
2022/12/06 09:09:45;;;;;;;9.20;7.17;;;3.30;99.90;;;;;;5014943;28;20196;-59
2022/12/06 09:12:11;;;;;;;9.27;6.57;;;3.30;99.90;;;;;;5013017;28;20199;-58
2022/12/06 09:14:37;;;;;;;7.20;5.90;;;3.30;99.90;;;;;;5015522;28;20195;-58
2022/12/06 09:17:02;;;;;;;7.13;5.67;;;3.30;99.90;;;;;;5014921;28;20268;-59
2022/12/06 09:19:28;;;;;;;8.17;6.87;;;3.40;99.90;;;;;;5015051;28;20203;-58
2022/12/06 09:21:53;;;;;;;6.17;5.23;;;3.40;99.90;;;;;;5015024;28;20211;-60
2022/12/06 09:24:19;;;;;;;6.93;5.57;;;3.40;99.90;;;;;;5014838;28;20199;-59
2022/12/06 09:26:45;;;;;;;7.50;6.07;;;3.40;99.90;;;;;;5011952;28;20697;-59
2022/12/06 09:29:11;;;;;;;6.30;5.67;;;3.50;99.90;;;;;;5013327;28;20197;-58
2022/12/06 09:31:39;;;;;;;7.43;5.17;;;3.60;99.90;;;;;;5019130;28;20203;-59
2022/12/06 09:34:09;;;;;;;5.23;4.73;;;3.60;99.90;;;;;;5023100;28;20678;-59
2022/12/06 09:36:40;;;;;;;6.17;4.90;;;3.60;99.90;;;;;;5022204;28;20275;-59
2022/12/06 09:39:15;;;;;;;6.20;5.07;;;3.60;99.90;;;;;;5024437;28;20700;-59
2022/12/06 09:42:16;;;;;;;6.50;5.27;;;3.70;99.90;;;;;;5022854;28;20215;-59
2022/12/06 09:45:04;;;;;;;5.13;4.63;;;3.60;99.90;;;;;;5023090;28;20186;-59
2022/12/06 09:48:09;;;;;;;6.17;5.13;;;3.60;99.90;;;;;;5022662;28;20597;-58
2022/12/06 09:50:54;;;;;;;8.17;5.73;;;3.60;99.90;;;;;;5019915;28;20576;-59
2022/12/06 09:53:55;;;;;;;5.87;4.90;;;3.60;99.90;;;;;;5022101;28;20787;-60
2022/12/06 09:56:26;;;;;;;7.73;5.70;;;3.60;99.90;;;;;;4975222;28;20765;-61
2022/12/06 09:59:06;;;;;;;6.13;5.57;;;3.60;99.90;;;;;;5017945;28;20677;-61
2022/12/06 10:02:07;;;;;;;6.13;5.30;;;3.70;99.90;;;;;;5015731;28;20680;-61
2022/12/06 10:05:23;;;;;;;6.67;5.33;;;3.80;99.90;;;;;;5016634;28;20214;-61
2022/12/06 10:08:00;;;;;;;5.83;4.77;;;3.80;99.90;;;;;;4992911;28;20685;-61
2022/12/06 10:10:38;;;;;;;6.60;5.20;;;3.90;99.90;;;;;;5016840;28;20693;-61
2022/12/06 10:13:42;;;;;;;7.73;5.90;;;3.90;99.90;;;;;;5017907;28;20202;-65
2022/12/06 10:16:24;;;;;;;6.27;5.40;;;3.90;99.90;;;;;;5013600;28;20195;-65
2022/12/06 10:19:23;;;;;;;8.43;5.90;;;3.80;99.90;;;;;;5012040;28;20405;-56
2022/12/06 10:22:19;;;;;;;8.47;6.10;;;3.80;99.90;;;;;;5011564;28;20767;-56
2022/12/06 10:25:11;;;;;;;5.93;5.20;;;3.70;99.90;;;;;;5026700;28;20222;-55
2022/12/06 10:27:39;;;;;;;8.43;5.50;;;3.80;99.90;;;;;;5025728;28;20202;-55
2022/12/06 10:30:10;;;;;;;9.43;6.47;;;3.60;99.90;;;;;;5030543;28;20195;-55
2022/12/06 10:32:51;;;;;;;9.30;5.97;;;3.60;99.90;;;;;;5029984;28;20229;-59
2022/12/06 10:35:22;;;;;;;6.13;5.20;;;3.70;99.90;;;;;;5024353;28;20214;-58
2022/12/06 10:38:05;;;;;;;9.47;5.53;;;3.60;99.90;;;;;;5028736;28;20197;-58
2022/12/06 10:40:49;;;;;;;7.90;6.10;;;3.60;99.90;;;;;;5024323;28;20219;-59
2022/12/06 10:43:24;;;;;;;7.93;5.80;;;3.60;99.90;;;;;;5025774;28;20735;-58
2022/12/06 10:49:07;;;;;;;10.33;7.13;;;3.60;99.90;;;;;;5023131;28;20248;-58
2022/12/06 10:51:44;;;;;;;10.77;7.30;;;3.60;99.90;;;;;;5019574;28;20310;-61
2022/12/06 10:54:23;;;;;;;9.57;7.23;;;3.60;99.90;;;;;;5008627;28;20290;-68
2022/12/06 10:56:52;;;;;;;10.37;7.53;;;3.60;99.90;;;;;;5017812;28;21003;-66
2022/12/06 10:59:37;;;;;;;7.37;6.43;;;3.70;99.90;;;;;;5016954;28;20211;-69
2022/12/06 11:02:26;;;;;;;8.00;5.90;;;3.70;99.90;;;;;;5018091;28;20210;-63
2022/12/06 11:04:57;;;;;;;8.57;7.07;;;3.60;99.90;;;;;;5014529;28;20200;-67
2022/12/06 11:07:33;;;;;;;7.73;6.53;;;3.60;99.90;;;;;;5006169;28;20211;-68
2022/12/06 11:09:59;;;;;;;9.60;8.10;;;3.50;99.90;;;;;;5005095;28;20325;-61
2022/12/06 11:12:33;;;;;;;7.03;6.27;;;3.40;99.90;;;;;;5007698;28;20297;-61
2022/12/06 11:15:16;;;;;;;7.07;5.90;;;3.40;99.90;;;;;;5005587;28;20225;-61
2022/12/06 11:17:47;;;;;;;7.10;5.57;;;3.40;99.90;;;;;;5009842;28;20246;-60
2022/12/06 11:20:31;;;;;;;8.20;6.20;;;3.40;99.90;;;;;;5000591;28;20196;-61
2022/12/06 11:23:11;;;;;;;6.43;5.40;;;3.40;99.90;;;;;;5007870;28;20199;-61
2022/12/06 11:26:08;;;;;;;10.40;6.77;;;3.40;99.90;;;;;;5006897;28;20285;-61
2022/12/06 11:28:43;;;;;;;8.70;6.03;;;3.40;99.90;;;;;;5007060;28;20202;-61
2022/12/06 11:31:17;;;;;;;6.80;6.13;;;3.40;99.90;;;;;;5006187;28;20697;-66
2022/12/06 11:33:42;;;;;;;8.53;6.83;;;3.50;99.90;;;;;;5006903;28;21010;-63
2022/12/06 11:36:08;;;;;;;8.43;7.10;;;3.50;99.90;;;;;;5006116;28;20208;-61
2022/12/06 11:38:38;;;;;;;7.03;5.67;;;3.60;99.90;;;;;;5008469;28;20207;-61
2022/12/06 11:41:09;;;;;;;8.30;5.73;;;3.60;99.90;;;;;;5003368;28;20216;-60
2022/12/06 11:43:35;;;;;;;6.47;5.57;;;3.60;99.90;;;;;;5006856;28;20266;-61
2022/12/06 11:46:03;;;;;;;8.20;5.50;;;3.60;99.90;;;;;;5006386;28;20469;-63
2022/12/06 11:48:32;;;;;;;6.57;5.50;;;3.60;99.90;;;;;;5008086;28;20246;-61
2022/12/06 11:50:58;;;;;;;6.70;5.43;;;3.70;99.90;;;;;;5005675;28;20623;-62
2022/12/06 11:53:40;;;;;;;7.53;5.20;;;3.70;99.90;;;;;;5004893;28;20245;-66
2022/12/06 11:56:25;;;;;;;7.83;6.40;;;3.70;99.90;;;;;;5003226;28;20216;-69
2022/12/06 11:59:23;;;;;;;6.83;5.97;;;3.70;99.90;;;;;;5002803;28;20239;-62
2022/12/06 12:01:53;;;;;;;5.77;5.10;;;3.70;99.90;;;;;;5005351;28;20223;-62
2022/12/06 12:04:38;;;;;;;7.67;5.97;;;3.70;99.90;;;;;;5005972;28;20204;-61
2022/12/06 12:07:16;;;;;;;6.77;5.93;;;3.70;99.90;;;;;;5005166;28;20199;-62
2022/12/06 12:09:47;;;;;;;6.33;5.53;;;3.70;99.90;;;;;;5006039;28;20233;-60
2022/12/06 12:12:16;;;;;;;7.27;5.73;;;3.70;99.90;;;;;;5005660;28;20200;-64
2022/12/06 12:14:43;;;;;;;5.33;4.83;;;3.80;99.90;;;;;;5006374;28;20215;-69
2022/12/06 12:17:17;;;;;;;5.90;4.97;;;3.80;99.90;;;;;;4999780;28;20566;-62
2022/12/06 12:19:49;;;;;;;4.83;4.33;;;3.70;99.90;;;;;;5008808;28;20203;-61
2022/12/06 12:22:34;;;;;;;5.20;4.67;;;3.70;99.90;;;;;;5005507;28;20235;-61
2022/12/06 12:25:03;;;;;;;4.90;4.33;;;3.70;99.90;;;;;;5008201;28;20235;-61
2022/12/06 12:27:37;;;;;;;4.27;3.87;;;3.70;99.90;;;;;;5002091;28;20210;-61
2022/12/06 12:30:23;;;;;;;5.53;4.03;;;3.70;99.90;;;;;;5002377;28;20206;-61
2022/12/06 12:33:09;;;;;;;4.07;3.67;;;3.80;99.90;;;;;;5003978;28;20199;-61
2022/12/06 12:35:40;;;;;;;4.83;4.43;;;3.70;99.90;;;;;;5009003;28;20213;-61
2022/12/06 12:38:09;;;;;;;3.57;3.27;;;3.70;99.90;;;;;;5015323;28;20214;-61
2022/12/06 12:40:40;;;;;;;3.53;3.23;;;3.60;99.90;;;;;;5013666;28;20214;-61
2022/12/06 12:43:12;;;;;;;4.07;3.67;;;3.60;99.90;;;;;;5012888;28;20212;-61
2022/12/06 12:45:39;;;;;;;4.07;3.37;;;3.60;99.90;;;;;;5014221;28;20317;-62
2022/12/06 12:48:25;;;;;;;5.53;3.80;;;3.60;99.90;;;;;;5014780;28;20593;-61
2022/12/06 12:50:53;;;;;;;4.50;3.80;;;3.60;99.90;;;;;;5014979;28;20297;-61
2022/12/06 12:53:38;;;;;;;3.60;3.30;;;3.70;99.90;;;;;;5015184;28;20231;-62
2022/12/06 12:56:18;;;;;;;3.80;3.50;;;3.70;99.90;;;;;;5012019;28;20237;-61
2022/12/06 12:58:46;;;;;;;4.03;3.70;;;3.70;99.90;;;;;;5015239;28;20195;-62
2022/12/06 13:01:36;;;;;;;4.53;4.20;;;3.70;99.90;;;;;;5012867;28;20219;-62
2022/12/06 13:04:17;;;;;;;4.47;3.80;;;3.70;99.90;;;;;;5015123;28;20187;-61
2022/12/06 13:07:10;;;;;;;4.00;3.70;;;3.60;99.90;;;;;;5013274;28;20197;-60
2022/12/06 13:10:00;;;;;;;4.07;3.60;;;3.60;99.90;;;;;;5010411;28;20586;-62
2022/12/06 13:12:32;;;;;;;4.30;3.90;;;3.60;99.90;;;;;;5016010;28;20608;-62
2022/12/06 13:15:17;;;;;;;4.53;4.13;;;3.70;99.90;;;;;;5019452;28;20203;-61
2022/12/06 13:17:48;;;;;;;4.27;3.87;;;3.70;99.90;;;;;;5019127;28;20211;-61
2022/12/06 13:20:30;;;;;;;3.80;3.60;;;3.60;99.90;;;;;;5019168;28;20195;-61
2022/12/06 13:23:06;;;;;;;4.80;4.40;;;3.70;99.90;;;;;;5019015;28;20205;-59
2022/12/06 13:25:32;;;;;;;4.60;4.20;;;3.70;99.90;;;;;;5016985;28;20257;-60
2022/12/06 13:28:01;;;;;;;4.80;4.40;;;3.60;99.90;;;;;;5018678;28;20673;-61
2022/12/06 13:30:30;;;;;;;6.13;5.13;;;3.70;99.90;;;;;;5018872;28;20749;-61
2022/12/06 13:33:03;;;;;;;5.47;4.73;;;3.80;99.90;;;;;;5018780;28;20207;-61
2022/12/06 13:35:36;;;;;;;4.70;4.30;;;3.70;99.90;;;;;;5017857;28;20262;-61
2022/12/06 13:38:18;;;;;;;6.40;5.80;;;3.80;99.90;;;;;;5019285;28;20230;-61
2022/12/06 13:40:54;;;;;;;5.13;4.73;;;3.70;99.90;;;;;;5018141;28;20218;-61
2022/12/06 13:43:22;;;;;;;5.63;5.13;;;3.80;99.90;;;;;;5015503;28;20578;-62
2022/12/06 13:45:53;;;;;;;4.73;4.33;;;3.80;99.90;;;;;;5018772;28;20557;-61